Terminal Aerodrome Forecast
Issued by NWS Upton, NY

Home | Current Version | Previous Version | Text Only | Print | Product List | Glossary On
Versions: 1 2 3 4 5 6 7 8 9 10 11 12 13 14 15 16 17 18 19 20 21 22 23 24 25 26 27 28 29 30 31 32
000
FTUS41 KOKX 230231 AAA
TAFEWR
TAF AMD
KEWR 230231Z 2303/2406 VRB04KT P6SM SCT100 BKN250
     FM230800 VRB03KT 5SM BR SCT015 BKN250
     FM231100 20003KT 2SM BR BKN015 OVC035
     FM231500 22006KT 5SM BR BKN025
     FM231800 20009KT P6SM BKN035
     FM240300 21005KT 4SM BR OVC030=

USA.gov is the U.S. government's official web portal to all federal, state and local government web resources and services.